Headquarters, Valles Caldera, New Mexico Weather observations

Data are for 10 minute period ending at time listed.
 Day   Time   Solar   Ave.   Ave.  Ave.  Vector  Max.   Baro.   Total    
  of    of     Rad.   Air    Rel.  Wind   Wind   Wind  Press.  Precip.   
Year   Day            Temp.  Hum.  Speed  Dir.   Gust                    
2016   (MST)  Kw/m2    F      %     mph   deg.    mph    mb.     in.     
-------------------------------------------------------------------------
 178   20:20   0.00   56.6    70    2.3   252     4.8   749.3    0.00 
 178   20:30   0.00   56.0    73    3.6   322     4.8   749.3    0.00 
 178   20:40   0.00   55.4    75    2.9   288     4.8   749.3    0.00 
 178   20:50   0.00   54.9    76    1.9   255     4.2   749.4    0.00 
 178   21:00   0.00   55.2    75    4.3   326     9.0   749.5    0.00 
 178   21:10   0.00   55.0    76    2.0   244     6.6   749.5    0.00 
 178   21:20   0.00   54.1    78    2.2   252     4.8   749.6    0.00 
 178   21:30   0.00   53.6    79    2.8   258     4.8   749.7    0.00 
 178   21:40   0.00   53.4    79    2.5   275     4.8   749.7    0.00 
 178   21:50   0.00   52.9    80    3.4   270     4.2   749.6    0.00 
 178   22:00   0.00   52.9    79    2.7   233     4.2   749.4    0.00 
 178   22:10   0.00   52.7    77    2.8   259     4.8   749.2    0.00 
 178   22:20   0.00   51.7    79    3.9   252     5.4   749.1    0.00 
 178   22:30   0.00   51.7    78    2.7   284     4.2   749.1    0.00 
 178   22:40   0.00   51.6    76    1.9   318     4.2   749.1    0.00 
 178   22:50   0.00   50.4    79    2.7   306     4.2   749.1    0.00 
 178   23:00   0.00   49.7    78    4.6   232     6.6   748.9    0.00 
 178   23:10   0.00   48.6    82    4.6   257     5.4   748.9    0.00 
 178   23:20   0.00   48.8    80    2.9   257     5.4   748.9    0.00 
 178   23:30   0.00   47.7    82    4.2   266     5.4   748.9    0.00 
 178   23:40   0.00   48.0    82    3.2   265     4.2   748.8    0.00 
 178   23:50   0.00   48.1    82    3.5   283     4.8   748.7    0.00 
 179    0:00   0.00   47.8    81    3.7   276     4.8   748.6    0.00 
 179    0:10   0.00   47.1    82    3.3   275     4.2   748.5    0.00 
 179    0:20   0.00   47.0    82    4.2   276     5.4   748.4    0.00 
 179    0:30   0.00   46.5    82    3.1   270     5.4   748.3    0.00 
 179    0:40   0.00   46.8    81    2.8   293     3.6   748.3    0.00 
 179    0:50   0.00   46.5    80    2.4   350     3.6   748.3    0.00 
 179    1:00   0.00   46.8    81    1.2   309     2.4   748.3    0.00 
 179    1:10   0.00   46.3    80    3.1   242     4.2   748.2    0.00 
 179    1:20   0.00   46.2    80    2.2   304     3.6   748.1    0.00 
 179    1:30   0.00   46.3    80    2.4   281     3.6   748.0    0.00 
 179    1:40   0.00   46.2    79    3.9   258     5.4   748.0    0.00 
 179    1:50   0.00   46.0    79    2.9   278     4.8   748.1    0.00 
 179    2:00   0.00   46.4    79    2.4   290     3.6   748.1    0.00 
 179    2:10   0.00   47.0    77    2.0   262     3.0   748.2    0.00 
 179    2:20   0.00   47.2    77    1.8   289     2.4   748.2    0.00 
 179    2:30   0.00   47.4    77    1.3   348     2.4   748.2    0.00 
 179    2:40   0.00   47.0    77    0.5   328     2.4   748.2    0.00 
 179    2:50   0.00   46.7    79    1.6   323     3.0   748.3    0.00 
 179    3:00   0.00   46.5    78    2.7   249     4.2   748.3    0.00 
 179    3:10   0.00   45.5    82    3.3   265     4.2   748.3    0.00 
 179    3:20   0.00   45.6    83    2.4   266     3.0   748.3    0.00 
 179    3:30   0.00   45.8    84    2.0   294     3.0   748.3    0.00 
 179    3:40   0.00   45.6    84    1.0   278     2.4   748.4    0.00 
 179    3:50   0.00   45.4    84    2.1   236     3.0   748.4    0.00 
 179    4:00   0.00   44.8    84    3.1   322     4.8   748.5    0.00 
 179    4:10   0.00   44.3    86    3.8   244     5.4   748.5    0.00 
 179    4:20   0.00   44.1    86    3.5   274     4.8   748.5    0.00 
 179    4:30   0.00   44.8    84    1.7   310     3.6   748.6    0.00 
 179    4:40   0.00   43.7    86    0.9    17     2.4   748.6    0.00 
 179    4:50   0.00   43.0    87    1.9   330     3.6   748.8    0.00 
 179    5:00   0.00   42.5    89    1.5   275     3.6   748.8    0.00 
 179    5:10   0.01   42.2    90    3.6   250     4.2   748.9    0.00 
 179    5:20   0.01   43.3    88    3.4   288     4.2   749.0    0.00 
 179    5:30   0.03   44.5    86    2.4   266     3.6   749.0    0.00 
 179    5:40   0.06   47.2    82    1.7   268     2.4   749.0    0.00 
 179    5:50   0.10   50.2    78    1.3   229     2.4   749.1    0.00 
 179    6:00   0.10   47.6    78    2.4    28     3.6   749.3    0.00 
 179    6:10   0.11   46.3    84    0.6   172     1.8   749.3    0.00 
 179    6:20   0.13   50.2    78    0.8   236     1.8   749.4    0.00 
 179    6:30   0.17   50.7    76    2.6    66     3.6   749.5    0.00 
 179    6:40   0.16   50.4    76    1.5    52     3.0   749.6    0.00 
 179    6:50   0.19   51.0    76    1.6   167     2.4   749.6    0.00 
 179    7:00   0.29   54.5    71    1.9   186     3.0   749.6    0.00 
 179    7:10   0.32   55.8    70    3.7    88     6.0   749.7    0.00 
 179    7:20   0.35   54.9    72    4.0    44     6.0   749.8    0.00 
 179    7:30   0.38   57.5    66    1.9    62     3.6   749.9    0.00 
 179    7:40   0.41   59.8    61    2.4   165     3.6   749.8    0.00 
 179    7:50   0.44   62.4    57    2.2   148     3.6   749.9    0.00 
 179    8:00   0.46   64.6    46    2.7   104     4.8   749.9    0.00 
 179    8:10   0.49   64.9    50    4.3    94     6.0   750.0    0.00 
 179    8:20   0.52   65.3    48    3.9    82     5.4   750.0    0.00 
 179    8:30   0.54   67.5    49    3.9    56     7.2   750.0    0.00 
 179    8:40   0.57   69.0    44    4.7    80     8.4   750.1    0.00 
 179    8:50   0.59   69.5    41    5.5    74     8.4   750.0    0.00 
 179    9:00   0.61   69.7    40    5.1    82     8.4   750.1    0.00 
 179    9:10   0.64   69.8    40    5.1    72     9.6   750.1    0.00 
 179    9:20   0.67   70.6    38    4.5    67     7.8   750.0    0.00 
 179    9:30   0.69   71.4    36    3.9    74     8.4   750.0    0.00 
 179    9:40   0.69   71.4    35    3.3    59     8.4   749.9    0.00 
 179    9:50   0.72   71.5    36    5.4    58     9.6   749.9    0.00 
 179   10:00   0.74   71.9    34    4.7    25     9.0   749.8    0.00 
 179   10:10   0.77   72.6    37    6.2    58    11.9   749.8    0.00 
 179   10:20   0.83   72.6    34    6.2    94    11.9   749.8    0.00 
 179   10:30   0.86   72.8    33    6.1   109    10.8   749.8    0.00 
 179   10:40   0.82   72.8    34    5.1    38    11.3   749.8    0.00 
 179   10:50   0.83   72.5    33    5.2    94    10.8   749.7    0.00 
 179   11:00   0.83   72.5    35    5.5    20    11.9   749.7    0.00 
 179   11:10   0.95   73.1    33    4.3   126     9.6   749.7    0.00 
 179   11:20   0.80   74.8    31    7.8    86    13.7   749.6    0.00 
 179   11:30   0.80   73.6    31    6.8    87    13.1   749.6    0.00 
 179   11:40   0.43   72.8    32    6.8    77    13.1   749.6    0.00 
 179   11:50   0.68   71.8    36    7.2    98    12.5   749.6    0.00 
 179   12:00   0.93   73.6    38    9.0   191    16.1   749.6    0.00 
 179   12:10   0.35   73.3    36    8.3   222    13.7   749.6    0.00 
 179   12:20   0.25   70.5    38    8.2   241    14.3   749.6    0.00 
 179   12:30   0.24   68.9    39    9.3   231    13.7   749.7    0.00 
 179   12:40   0.27   68.5    40    7.6   238    12.5   749.7    0.00 
 179   12:50   0.39   69.4    40    6.8   239    11.3   749.7    0.00 
 179   13:00   0.72   72.2    38    5.4   246    12.5   749.5    0.00 
 179   13:10   0.78   74.4    34    5.3   245    10.8   749.3    0.00 
 179   13:20   0.88   75.8    31    3.9   293     7.8   749.2    0.00 
 179   13:30   0.66   74.5    32    3.9    68     7.8   749.0    0.00 
 179   13:40   0.47   72.8    36   10.8   195    16.7   749.0    0.00 
 179   13:50   0.39   71.2    38    8.4   218    13.7   749.0    0.00 
 179   14:00   0.48   72.3    36    6.0   224     9.6   749.0    0.00 
 179   14:10   0.75   74.1    32    4.6   281     9.6   748.8    0.00 
 179   14:20   0.63   73.9    32    4.0   344     9.0   748.7    0.00 
 179   14:30   0.57   73.5    32    5.7   340     9.0   748.6    0.00 
 179   14:40   0.54   73.5    31    5.5    30    10.8   748.4    0.00 
 179   14:50   0.64   74.1    32    5.6    74    10.2   748.3    0.00 
 179   15:00   0.74   75.2    32    5.3    99     9.6   748.2    0.00 
 179   15:10   0.81   75.8    31    8.3   152    13.7   748.0    0.00 
 179   15:20   0.70   75.3    30    7.1   148    13.1   748.0    0.00 
 179   15:30   0.66   74.7    32    6.6   172    12.5   748.0    0.00 
 179   15:40   0.28   73.4    32    5.3   138    11.9   748.0    0.00 
 179   15:50   0.17   71.6    35    5.6   148    10.8   748.0    0.00 
 179   16:00   0.25   71.0    36    6.3   182    11.9   748.1    0.00 
 179   16:10   0.47   72.9    34    5.2   192     8.4   748.1    0.00 
 179   16:20   0.15   73.1    33    2.8   236     9.0   748.1    0.00 
 179   16:30   0.11   71.3    33    6.5   123    13.7   748.0    0.00 
 179   16:40   0.09   69.6    35    5.9   144    13.7   748.1    0.00 
 179   16:50   0.08   68.8    37    4.0   170     8.4   748.1    0.00 
 179   17:00   0.04   68.3    36    3.8    88    11.3   748.3    0.00 
 179   17:10   0.01   67.4    39    6.7     6    16.1   748.5    0.00 
 179   17:20   0.01   65.2    45   10.1    44    18.5   749.2    0.00 
 179   17:30   0.01   62.7    56   10.0    28    16.7   749.6    0.00 
 179   17:40   0.01   58.1    70    6.5   322    10.8   750.0    0.02 
 179   17:50   0.01   56.1    80    4.9   288     7.2   750.0    0.00 
 179   18:00   0.01   55.0    85    3.6   244     5.4   750.0    0.00 
 179   18:10   0.01   54.9    84    4.3   257     6.6   749.9    0.00 
 179   18:20   0.01   55.0    85    3.9   239     6.0   749.7    0.00 
 179   18:30   0.02   55.4    83    5.1   277     7.2   749.5    0.00 
 179   18:40   0.02   56.5    74    6.4   297    10.8   749.6    0.00 
 179   18:50   0.02   58.2    69    3.2   267     6.0   749.9    0.00 
 179   19:00   0.05   57.2    75    3.2   261    10.2   750.0    0.00 
 179   19:10   0.07   58.5    66    6.9   122    12.5   749.6    0.00 
 179   19:20   0.03   59.2    58    4.4    83     9.6   749.0    0.00 
 179   19:30   0.00   59.3    58    7.8   321    13.1   749.1    0.00 
 179   19:40   0.00   58.9    58    8.3   317    15.5   749.3    0.00 
 179   19:50   0.00   60.4    50    7.3   311    12.5   749.4    0.00 
 179   20:00   0.00   60.5    50    3.1   213     6.0   749.4    0.00 
 179   20:10   0.00   59.4    54    3.5   221     6.6   749.3    0.00 

Return to Headquarters, Valles Caldera graphs page.


Western Regional Climate Center,wrcc@dri.edu